createdAt,value
2019-06-20T00:00:59.738Z,960.99
2019-06-20T00:01:59.662Z,961.03
2019-06-20T00:02:59.612Z,960.99
2019-06-20T00:03:59.599Z,961.00
2019-06-20T00:04:59.522Z,961.00
2019-06-20T00:05:59.513Z,960.99
2019-06-20T00:06:59.433Z,960.99
2019-06-20T00:07:59.390Z,960.95
2019-06-20T00:08:59.350Z,960.98
2019-06-20T00:09:59.337Z,961.00
2019-06-20T00:10:59.249Z,960.94
2019-06-20T00:11:59.238Z,960.95
2019-06-20T00:13:00.780Z,960.91
2019-06-20T00:13:59.115Z,960.90
2019-06-20T00:14:59.104Z,960.90
2019-06-20T00:15:59.027Z,960.98
2019-06-20T00:16:59.594Z,960.97
2019-06-20T00:17:58.968Z,960.99
2019-06-20T00:18:58.898Z,960.97
2019-06-20T00:19:58.890Z,960.95
2019-06-20T00:20:58.800Z,960.97
2019-06-20T00:21:58.762Z,960.94
2019-06-20T00:22:58.720Z,960.94
2019-06-20T00:23:58.667Z,960.96
2019-06-20T00:24:58.664Z,960.90
2019-06-20T00:25:58.606Z,960.88
2019-06-20T00:26:58.535Z,960.92
2019-06-20T00:27:58.492Z,960.86
2019-06-20T00:28:58.457Z,960.88
2019-06-20T00:29:58.396Z,960.87
2019-06-20T00:30:58.381Z,960.92
2019-06-20T00:31:58.307Z,960.92
2019-06-20T00:32:58.258Z,960.92
2019-06-20T00:33:58.214Z,960.93
2019-06-20T00:34:58.173Z,960.93
2019-06-20T00:35:58.161Z,960.94
2019-06-20T00:36:58.113Z,960.96
2019-06-20T00:37:58.038Z,960.95
2019-06-20T00:38:57.989Z,960.96
2019-06-20T00:39:57.942Z,961.01
2019-06-20T00:40:57.914Z,961.02
2019-06-20T00:41:57.900Z,961.06
2019-06-20T00:42:57.805Z,961.07
2019-06-20T00:43:57.763Z,961.07
2019-06-20T00:44:57.717Z,961.04
2019-06-20T00:45:57.675Z,961.04
2019-06-20T00:46:57.658Z,961.05
2019-06-20T00:47:57.586Z,961.08
2019-06-20T00:48:57.537Z,961.03
2019-06-20T00:49:57.492Z,961.00
2019-06-20T00:50:57.447Z,960.97
2019-06-20T00:51:57.426Z,961.03
2019-06-20T00:52:57.390Z,961.01
2019-06-20T00:53:57.315Z,961.04
2019-06-20T00:54:57.308Z,961.02
2019-06-20T00:55:57.237Z,960.99
2019-06-20T00:56:57.181Z,960.97
2019-06-20T00:57:57.137Z,961.04
2019-06-20T00:58:57.086Z,961.08
2019-06-20T00:59:57.076Z,961.08
2019-06-20T01:00:56.996Z,961.10
2019-06-20T01:01:56.980Z,961.06
2019-06-20T01:02:56.910Z,961.08
2019-06-20T01:03:56.855Z,961.10
2019-06-20T01:04:56.811Z,961.07
2019-06-20T01:05:56.798Z,961.11
2019-06-20T01:06:56.761Z,961.07
2019-06-20T01:07:56.682Z,961.10
2019-06-20T01:08:56.633Z,961.07
2019-06-20T01:09:56.586Z,961.08
2019-06-20T01:10:56.548Z,961.10
2019-06-20T01:11:56.529Z,961.09
2019-06-20T01:12:56.463Z,961.10
2019-06-20T01:13:56.401Z,961.09
2019-06-20T01:14:56.357Z,961.07
2019-06-20T01:15:56.311Z,961.03
2019-06-20T01:16:56.307Z,960.97
2019-06-20T01:17:56.218Z,960.91
2019-06-20T01:18:56.176Z,960.92
2019-06-20T01:19:58.197Z,961.02
2019-06-20T01:20:56.082Z,961.11
2019-06-20T01:21:56.078Z,961.25
2019-06-20T01:22:55.995Z,961.39
2019-06-20T01:23:55.948Z,961.50
2019-06-20T01:24:55.899Z,961.59
2019-06-20T01:25:55.858Z,961.67
2019-06-20T01:26:55.842Z,961.79
2019-06-20T01:27:55.767Z,961.82
2019-06-20T01:28:55.722Z,961.78
2019-06-20T01:29:55.673Z,961.89
2019-06-20T01:30:55.630Z,961.95
2019-06-20T01:31:55.631Z,961.93
2019-06-20T01:32:55.572Z,961.94
2019-06-20T01:33:55.489Z,962.03
2019-06-20T01:34:55.476Z,962.02
2019-06-20T01:35:55.406Z,962.08
2019-06-20T01:36:55.378Z,962.09
2019-06-20T01:37:55.302Z,962.12
2019-06-20T01:38:55.257Z,962.21
2019-06-20T01:39:55.212Z,962.14
2019-06-20T01:40:55.164Z,962.19
2019-06-20T01:41:55.149Z,962.12
2019-06-20T01:42:55.100Z,962.17
2019-06-20T01:43:55.061Z,962.14
2019-06-20T01:44:55.013Z,962.04
2019-06-20T01:45:54.944Z,962.03
2019-06-20T01:46:54.920Z,962.05
2019-06-20T01:47:54.875Z,962.02
2019-06-20T01:48:54.792Z,962.07
2019-06-20T01:49:54.749Z,962.04
2019-06-20T01:50:54.726Z,962.01
2019-06-20T01:51:54.652Z,962.00
2019-06-20T01:52:54.611Z,961.97
2019-06-20T01:53:54.589Z,961.93
2019-06-20T01:54:54.519Z,961.84
2019-06-20T01:55:54.472Z,961.85
2019-06-20T01:56:54.423Z,961.86
2019-06-20T01:57:54.417Z,961.92
2019-06-20T01:58:54.342Z,962.08
2019-06-20T01:59:54.278Z,962.09
2019-06-20T02:00:54.255Z,962.06
2019-06-20T02:01:54.184Z,961.97
2019-06-20T02:02:54.169Z,961.97
2019-06-20T02:03:54.093Z,962.00
2019-06-20T02:04:54.054Z,962.01
2019-06-20T02:05:53.998Z,961.97
2019-06-20T02:06:53.984Z,962.00
2019-06-20T02:07:53.912Z,962.04
2019-06-20T02:08:53.888Z,962.03
2019-06-20T02:09:53.812Z,962.04
2019-06-20T02:10:53.770Z,962.02
2019-06-20T02:11:53.717Z,962.03
2019-06-20T02:12:53.672Z,962.03
2019-06-20T02:14:06.406Z,961.98
2019-06-20T02:14:53.581Z,961.94
2019-06-20T02:15:53.534Z,961.97
2019-06-20T02:16:53.485Z,961.95
2019-06-20T02:17:53.443Z,961.95
2019-06-20T02:18:53.418Z,961.95
2019-06-20T02:19:53.380Z,961.88
2019-06-20T02:20:53.334Z,961.86
2019-06-20T02:21:53.294Z,961.80
2019-06-20T02:22:53.203Z,961.72
2019-06-20T02:23:53.172Z,961.69
2019-06-20T02:24:53.143Z,961.65
2019-06-20T02:25:53.067Z,961.58
2019-06-20T02:26:53.016Z,961.47
2019-06-20T02:27:52.969Z,961.42
2019-06-20T02:28:52.922Z,961.38
2019-06-20T02:29:52.915Z,961.35
2019-06-20T02:30:52.852Z,961.40
2019-06-20T02:31:52.781Z,961.43
2019-06-20T02:32:52.738Z,961.45
2019-06-20T02:33:52.723Z,961.43
2019-06-20T02:34:52.639Z,961.41
2019-06-20T02:35:52.592Z,961.41
2019-06-20T02:36:52.574Z,961.41
2019-06-20T02:37:52.504Z,961.44
2019-06-20T02:38:52.453Z,961.43
2019-06-20T02:39:52.406Z,961.38
2019-06-20T02:40:52.357Z,961.38
2019-06-20T02:41:52.342Z,961.47
2019-06-20T02:42:52.275Z,961.49
2019-06-20T02:43:52.255Z,961.57
2019-06-20T02:44:52.170Z,961.67
2019-06-20T02:45:52.124Z,961.78
2019-06-20T02:46:52.076Z,961.84
2019-06-20T02:47:52.028Z,961.80
2019-06-20T02:48:52.017Z,961.74
2019-06-20T02:49:51.936Z,961.71
2019-06-20T02:50:51.897Z,961.73
2019-06-20T02:51:51.839Z,961.76
2019-06-20T02:52:51.796Z,961.75
2019-06-20T02:53:51.777Z,961.78
2019-06-20T02:54:51.708Z,961.85
2019-06-20T02:55:51.655Z,961.88
2019-06-20T02:56:51.601Z,961.90
2019-06-20T02:57:51.558Z,961.89
2019-06-20T02:58:51.541Z,961.93
2019-06-20T02:59:51.462Z,961.99
2019-06-20T03:00:51.418Z,962.06
2019-06-20T03:01:51.374Z,962.04
2019-06-20T03:02:51.380Z,962.08
2019-06-20T03:03:51.270Z,962.05
2019-06-20T03:04:51.230Z,962.08
2019-06-20T03:05:51.180Z,962.16
2019-06-20T03:06:51.130Z,962.14
2019-06-20T03:07:51.112Z,962.18
2019-06-20T03:08:51.034Z,962.17
2019-06-20T03:09:51.024Z,962.21
2019-06-20T03:10:50.942Z,962.19
2019-06-20T03:11:50.892Z,962.21
2019-06-20T03:12:50.879Z,962.24
2019-06-20T03:13:50.804Z,962.19
2019-06-20T03:14:50.750Z,962.18
2019-06-20T03:15:50.705Z,962.23
2019-06-20T03:16:50.716Z,962.22
2019-06-20T03:17:50.608Z,962.25
2019-06-20T03:18:50.559Z,962.23
2019-06-20T03:19:50.516Z,962.23
2019-06-20T03:20:50.465Z,962.26
2019-06-20T03:21:50.480Z,962.23
2019-06-20T03:22:50.389Z,962.26
2019-06-20T03:23:50.338Z,962.26
2019-06-20T03:24:50.276Z,962.26
2019-06-20T03:25:50.231Z,962.33
2019-06-20T03:26:50.212Z,962.33
2019-06-20T03:27:50.132Z,962.33
2019-06-20T03:28:50.115Z,962.40
2019-06-20T03:29:50.065Z,962.41
2019-06-20T03:30:49.992Z,962.47
2019-06-20T03:31:49.949Z,962.51
2019-06-20T03:32:49.913Z,962.49
2019-06-20T03:33:49.851Z,962.52
2019-06-20T03:34:49.830Z,962.55
2019-06-20T03:35:49.749Z,962.54
2019-06-20T03:36:49.735Z,962.59
2019-06-20T03:37:50.412Z,962.57
2019-06-20T03:38:49.642Z,962.56
2019-06-20T03:39:49.603Z,962.55
2019-06-20T03:40:49.512Z,962.60
2019-06-20T03:41:49.462Z,962.62
2019-06-20T03:42:49.420Z,962.66
2019-06-20T03:43:49.373Z,962.64
2019-06-20T03:45:01.640Z,962.66
2019-06-20T03:45:49.270Z,962.71
2019-06-20T03:46:49.221Z,962.65
2019-06-20T03:47:49.180Z,962.68
2019-06-20T03:48:49.169Z,962.68
2019-06-20T03:49:49.084Z,962.71
2019-06-20T03:50:49.110Z,962.72
2019-06-20T03:51:51.668Z,962.72
2019-06-20T03:52:48.948Z,962.72
2019-06-20T03:53:48.927Z,962.73
2019-06-20T03:54:48.836Z,962.74
2019-06-20T03:55:48.838Z,962.70
2019-06-20T03:56:48.742Z,962.68
2019-06-20T03:57:48.701Z,962.75
2019-06-20T03:58:48.649Z,962.67
2019-06-20T03:59:48.601Z,962.68
2019-06-20T04:00:48.592Z,962.67
2019-06-20T04:01:49.296Z,962.69
2019-06-20T04:02:48.468Z,962.64
2019-06-20T04:03:48.408Z,962.65
2019-06-20T04:04:48.403Z,962.67
2019-06-20T04:05:48.341Z,962.68
2019-06-20T04:06:48.260Z,962.70
2019-06-20T04:07:48.214Z,962.68
2019-06-20T04:08:48.195Z,962.67
2019-06-20T04:09:48.120Z,962.69
2019-06-20T04:10:48.067Z,962.71
2019-06-20T04:11:48.020Z,962.75
2019-06-20T04:12:47.978Z,962.75
2019-06-20T04:13:47.972Z,962.81
2019-06-20T04:14:49.056Z,962.78
2019-06-20T04:15:47.867Z,962.80
2019-06-20T04:16:47.779Z,962.85
2019-06-20T04:17:47.736Z,962.88
2019-06-20T04:18:47.716Z,962.90
2019-06-20T04:19:47.639Z,962.92
2019-06-20T04:20:47.603Z,962.91
2019-06-20T04:21:47.589Z,962.92
2019-06-20T04:22:47.490Z,962.89
2019-06-20T04:23:47.443Z,962.93
2019-06-20T04:24:47.427Z,962.97
2019-06-20T04:25:47.351Z,963.02
2019-06-20T04:26:47.333Z,963.01
2019-06-20T04:27:47.252Z,963.05
2019-06-20T04:28:47.232Z,963.01
2019-06-20T04:29:47.152Z,963.01
2019-06-20T04:30:47.107Z,962.99
2019-06-20T04:31:47.090Z,963.02
2019-06-20T04:32:47.007Z,963.02
2019-06-20T04:33:46.972Z,963.02
2019-06-20T04:34:46.951Z,963.04
2019-06-20T04:35:46.877Z,963.06
2019-06-20T04:36:48.134Z,963.03
2019-06-20T04:37:46.767Z,963.02
2019-06-20T04:38:46.718Z,963.07
2019-06-20T04:39:46.669Z,963.10
2019-06-20T04:40:46.664Z,963.11
2019-06-20T04:41:46.576Z,963.07
2019-06-20T04:42:46.523Z,963.05
2019-06-20T04:43:46.474Z,963.07
2019-06-20T04:44:46.426Z,963.06
2019-06-20T04:45:46.412Z,963.03
2019-06-20T04:46:46.363Z,963.05
2019-06-20T04:47:46.278Z,963.04
2019-06-20T04:48:46.232Z,963.00
2019-06-20T04:49:46.186Z,963.03
2019-06-20T04:50:46.135Z,963.01
2019-06-20T04:51:46.120Z,963.00
2019-06-20T04:52:46.048Z,962.96
2019-06-20T04:53:45.990Z,962.98
2019-06-20T04:54:45.942Z,962.97
2019-06-20T04:55:45.891Z,963.01
2019-06-20T04:56:45.882Z,962.99
2019-06-20T04:57:45.796Z,963.02
2019-06-20T04:58:45.765Z,963.04
2019-06-20T04:59:45.713Z,963.04
2019-06-20T05:00:45.653Z,963.01
2019-06-20T05:01:45.634Z,963.00
2019-06-20T05:02:45.552Z,963.05
2019-06-20T05:03:45.553Z,963.05
2019-06-20T05:04:45.477Z,963.01
2019-06-20T05:05:45.408Z,962.98
2019-06-20T05:06:45.399Z,963.00
2019-06-20T05:07:45.322Z,962.97
2019-06-20T05:08:45.261Z,962.98
2019-06-20T05:09:45.207Z,962.92
2019-06-20T05:10:45.165Z,962.95
2019-06-20T05:11:45.147Z,962.89
2019-06-20T05:12:45.069Z,962.86
2019-06-20T05:13:45.015Z,962.91
2019-06-20T05:14:44.968Z,962.88
2019-06-20T05:15:52.660Z,962.87
2019-06-20T05:16:44.902Z,962.86
2019-06-20T05:17:44.851Z,962.87
2019-06-20T05:18:44.810Z,962.87
2019-06-20T05:19:44.729Z,962.89
2019-06-20T05:20:44.682Z,962.92
2019-06-20T05:21:44.625Z,962.91
2019-06-20T05:22:44.609Z,962.94
2019-06-20T05:23:44.532Z,962.94
2019-06-20T05:24:44.482Z,962.93
2019-06-20T05:25:44.436Z,962.89
2019-06-20T05:26:44.386Z,962.88
2019-06-20T05:27:44.389Z,962.91
2019-06-20T05:28:44.300Z,962.85
2019-06-20T05:29:44.241Z,962.89
2019-06-20T05:30:44.192Z,962.87
2019-06-20T05:31:44.150Z,962.85
2019-06-20T05:32:44.127Z,962.88
2019-06-20T05:33:44.050Z,962.91
2019-06-20T05:34:44.004Z,962.90
2019-06-20T05:35:43.948Z,962.89
2019-06-20T05:36:43.905Z,962.89
2019-06-20T05:37:43.886Z,962.88
2019-06-20T05:38:43.808Z,962.87
2019-06-20T05:39:43.762Z,962.89
2019-06-20T05:40:43.756Z,962.89
2019-06-20T05:41:43.660Z,962.91
2019-06-20T05:42:43.611Z,962.89
2019-06-20T05:43:43.571Z,962.91
2019-06-20T05:44:43.547Z,962.96
2019-06-20T05:45:46.291Z,962.90
2019-06-20T05:46:43.427Z,962.93
2019-06-20T05:47:43.378Z,962.90
2019-06-20T05:48:43.456Z,962.96
2019-06-20T05:49:43.275Z,962.94
2019-06-20T05:50:43.229Z,962.90
2019-06-20T05:51:43.188Z,962.89
2019-06-20T05:52:43.135Z,962.94
2019-06-20T05:53:43.119Z,962.90
2019-06-20T05:54:43.033Z,962.94
2019-06-20T05:55:43.023Z,962.92
2019-06-20T05:56:43.639Z,962.93
2019-06-20T05:57:42.893Z,962.94
2019-06-20T05:58:42.845Z,962.92
2019-06-20T05:59:43.426Z,962.95
2019-06-20T06:00:42.787Z,963.01
2019-06-20T06:01:42.704Z,962.98
2019-06-20T06:02:42.650Z,963.01
2019-06-20T06:03:42.604Z,962.97
2019-06-20T06:04:42.953Z,963.02
2019-06-20T06:05:42.552Z,963.02
2019-06-20T06:06:42.964Z,963.01
2019-06-20T06:07:42.413Z,963.00
2019-06-20T06:08:42.369Z,962.98
2019-06-20T06:09:42.322Z,962.96
2019-06-20T06:10:42.305Z,962.95
2019-06-20T06:11:42.220Z,962.95
2019-06-20T06:12:42.219Z,962.93
2019-06-20T06:13:42.124Z,962.95
2019-06-20T06:14:42.077Z,962.99
2019-06-20T06:15:42.415Z,963.04
2019-06-20T06:16:44.212Z,963.01
2019-06-20T06:17:42.153Z,963.07
2019-06-20T06:18:41.922Z,963.12
2019-06-20T06:19:41.843Z,963.12
2019-06-20T06:20:44.727Z,963.11
2019-06-20T06:21:41.791Z,963.12
2019-06-20T06:22:44.659Z,963.15
2019-06-20T06:23:41.658Z,963.10
2019-06-20T06:24:41.606Z,963.09
2019-06-20T06:25:41.559Z,963.12
2019-06-20T06:26:41.507Z,963.05
2019-06-20T06:27:41.554Z,963.05
2019-06-20T06:28:41.415Z,963.03
2019-06-20T06:29:41.365Z,963.05
2019-06-20T06:30:41.321Z,963.05
2019-06-20T06:31:41.268Z,963.01
2019-06-20T06:32:41.276Z,963.08
2019-06-20T06:33:41.178Z,963.01
2019-06-20T06:34:41.132Z,963.06
2019-06-20T06:35:41.111Z,963.04
2019-06-20T06:36:41.048Z,963.05
2019-06-20T06:37:41.043Z,963.03
2019-06-20T06:38:40.945Z,963.05
2019-06-20T06:39:43.462Z,963.05
2019-06-20T06:40:40.886Z,963.04
2019-06-20T06:41:40.801Z,963.04
2019-06-20T06:42:40.753Z,963.10
2019-06-20T06:43:42.072Z,963.07
2019-06-20T06:44:40.660Z,963.08
2019-06-20T06:45:40.661Z,963.09
2019-06-20T06:46:47.098Z,963.09
2019-06-20T06:47:40.519Z,963.10
2019-06-20T06:48:40.515Z,963.10
2019-06-20T06:49:40.426Z,963.12
2019-06-20T06:50:40.387Z,963.19
2019-06-20T06:51:40.342Z,963.13
2019-06-20T06:52:40.282Z,963.16
2019-06-20T06:53:40.268Z,963.15
2019-06-20T06:54:40.193Z,963.13
2019-06-20T06:55:40.535Z,963.17
2019-06-20T06:56:40.140Z,963.17
2019-06-20T06:57:40.052Z,963.11
2019-06-20T06:58:40.009Z,963.08
2019-06-20T06:59:39.959Z,963.05
2019-06-20T07:00:39.917Z,963.08
2019-06-20T07:01:39.904Z,963.08
2019-06-20T07:02:39.814Z,963.09
2019-06-20T07:03:39.765Z,963.08
2019-06-20T07:04:39.730Z,963.08
2019-06-20T07:05:39.680Z,963.06
2019-06-20T07:06:39.656Z,963.07
2019-06-20T07:07:39.593Z,963.07
2019-06-20T07:08:39.533Z,963.06
2019-06-20T07:09:39.489Z,963.01
2019-06-20T07:10:39.441Z,963.01
2019-06-20T07:11:39.423Z,963.01
2019-06-20T07:12:39.346Z,962.99
2019-06-20T07:13:39.300Z,963.01
2019-06-20T07:14:42.543Z,963.00
2019-06-20T07:15:39.205Z,962.99
2019-06-20T07:16:39.200Z,962.97
2019-06-20T07:17:39.150Z,963.01
2019-06-20T07:18:39.069Z,963.03
2019-06-20T07:19:39.024Z,962.99
2019-06-20T07:20:38.973Z,963.02
2019-06-20T07:21:38.963Z,963.01
2019-06-20T07:22:38.952Z,962.98
2019-06-20T07:23:38.881Z,962.99
2019-06-20T07:24:38.785Z,963.01
2019-06-20T07:25:38.740Z,963.03
2019-06-20T07:26:38.695Z,963.02
2019-06-20T07:27:38.650Z,963.02
2019-06-20T07:28:38.644Z,963.00
2019-06-20T07:29:38.563Z,962.99
2019-06-20T07:30:38.513Z,963.02
2019-06-20T07:31:38.463Z,963.01
2019-06-20T07:32:38.432Z,963.04
2019-06-20T07:33:38.407Z,963.05
2019-06-20T07:34:38.329Z,963.02
2019-06-20T07:35:41.727Z,963.01
2019-06-20T07:36:38.256Z,963.00
2019-06-20T07:37:38.186Z,963.04
2019-06-20T07:38:38.151Z,962.99
2019-06-20T07:39:38.094Z,962.98
2019-06-20T07:40:38.082Z,963.00
2019-06-20T07:41:38.007Z,963.04
2019-06-20T07:42:37.990Z,963.06
2019-06-20T07:43:37.913Z,963.05
2019-06-20T07:44:37.869Z,963.06
2019-06-20T07:45:37.822Z,963.05
2019-06-20T07:46:37.806Z,963.10
2019-06-20T07:47:37.772Z,963.08
2019-06-20T07:48:37.682Z,963.08
2019-06-20T07:49:37.640Z,963.12
2019-06-20T07:50:39.434Z,963.18
2019-06-20T07:51:37.673Z,963.14
2019-06-20T07:52:37.504Z,963.12
2019-06-20T07:53:37.476Z,963.13
2019-06-20T07:54:37.414Z,963.13
2019-06-20T07:55:37.362Z,963.11
2019-06-20T07:56:37.358Z,963.12
2019-06-20T07:57:37.274Z,963.15
2019-06-20T07:58:37.242Z,963.12
2019-06-20T07:59:37.214Z,963.10
2019-06-20T08:00:37.151Z,963.16
2019-06-20T08:01:37.092Z,963.18
2019-06-20T08:02:37.055Z,963.15
2019-06-20T08:03:37.007Z,963.14
2019-06-20T08:04:36.988Z,963.19
2019-06-20T08:05:36.914Z,963.12
2019-06-20T08:06:36.870Z,963.12
2019-06-20T08:07:36.823Z,963.14
2019-06-20T08:08:36.775Z,963.14
2019-06-20T08:09:44.938Z,963.18
2019-06-20T08:10:36.684Z,963.20
2019-06-20T08:11:36.639Z,963.24
2019-06-20T08:12:36.597Z,963.23
2019-06-20T08:13:36.550Z,963.25
2019-06-20T08:14:36.553Z,963.24
2019-06-20T08:15:36.457Z,963.22
2019-06-20T08:16:36.416Z,963.22
2019-06-20T08:17:36.370Z,963.20
2019-06-20T08:18:36.320Z,963.19
2019-06-20T08:19:36.315Z,963.27
2019-06-20T08:20:36.236Z,963.21
2019-06-20T08:21:36.193Z,963.30
2019-06-20T08:22:36.143Z,963.26
2019-06-20T08:23:36.102Z,963.22
2019-06-20T08:24:36.116Z,963.28
2019-06-20T08:25:36.053Z,963.28
2019-06-20T08:26:35.964Z,963.26
2019-06-20T08:27:35.917Z,963.33
2019-06-20T08:28:35.874Z,963.30
2019-06-20T08:29:35.829Z,963.30
2019-06-20T08:30:35.834Z,963.31
2019-06-20T08:31:35.740Z,963.29
2019-06-20T08:32:35.699Z,963.29
2019-06-20T08:33:35.693Z,963.35
2019-06-20T08:34:35.609Z,963.36
2019-06-20T08:35:35.656Z,963.38
2019-06-20T08:36:35.550Z,963.32
2019-06-20T08:37:35.509Z,963.38
2019-06-20T08:38:35.442Z,963.41
2019-06-20T08:39:35.391Z,963.35
2019-06-20T08:40:35.343Z,963.40
2019-06-20T08:41:35.340Z,963.37
2019-06-20T08:42:35.300Z,963.38
2019-06-20T08:43:35.257Z,963.37
2019-06-20T08:44:35.166Z,963.39
2019-06-20T08:45:35.127Z,963.45
2019-06-20T08:46:35.076Z,963.54
2019-06-20T08:47:35.037Z,963.46
2019-06-20T08:48:35.025Z,963.48
2019-06-20T08:49:34.947Z,963.51
2019-06-20T08:50:34.904Z,963.46
2019-06-20T08:51:34.885Z,963.47
2019-06-20T08:52:34.821Z,963.44
2019-06-20T08:53:34.814Z,963.46
2019-06-20T08:54:34.736Z,963.49
2019-06-20T08:55:34.688Z,963.49
2019-06-20T08:56:34.640Z,963.49
2019-06-20T08:57:34.598Z,963.56
2019-06-20T08:58:34.590Z,963.53
2019-06-20T08:59:34.512Z,963.52
2019-06-20T09:00:34.483Z,963.50
2019-06-20T09:01:34.419Z,963.56
2019-06-20T09:02:34.380Z,963.56
2019-06-20T09:03:34.394Z,963.58
2019-06-20T09:04:34.291Z,963.51
2019-06-20T09:05:34.246Z,963.45
2019-06-20T09:06:34.230Z,963.48
2019-06-20T09:07:34.161Z,963.46
2019-06-20T09:08:34.157Z,963.48
2019-06-20T09:09:34.073Z,963.47
2019-06-20T09:10:34.032Z,963.47
2019-06-20T09:11:34.040Z,963.48
2019-06-20T09:12:33.946Z,963.51
2019-06-20T09:13:33.901Z,963.52
2019-06-20T09:14:33.872Z,963.56
2019-06-20T09:15:33.821Z,963.53
2019-06-20T09:16:33.808Z,963.52
2019-06-20T09:17:33.735Z,963.54
2019-06-20T09:18:33.697Z,963.53
2019-06-20T09:19:33.649Z,963.54
2019-06-20T09:20:33.606Z,963.47
2019-06-20T09:21:33.592Z,963.49
2019-06-20T09:22:33.524Z,963.53
2019-06-20T09:23:35.685Z,963.53
2019-06-20T09:24:33.462Z,963.51
2019-06-20T09:25:33.387Z,963.48
2019-06-20T09:26:33.347Z,963.50
2019-06-20T09:27:33.301Z,963.49
2019-06-20T09:28:33.336Z,963.52
2019-06-20T09:29:41.817Z,963.53
2019-06-20T09:30:33.170Z,963.56
2019-06-20T09:31:33.130Z,963.54
2019-06-20T09:32:33.086Z,963.58
2019-06-20T09:33:33.078Z,963.66
2019-06-20T09:34:33.003Z,963.56
2019-06-20T09:35:32.958Z,963.65
2019-06-20T09:36:32.915Z,963.58
2019-06-20T09:37:32.875Z,963.55
2019-06-20T09:38:32.886Z,963.60
2019-06-20T09:39:32.790Z,963.51
2019-06-20T09:40:32.808Z,963.61
2019-06-20T09:41:32.712Z,963.61
2019-06-20T09:42:32.661Z,963.59
2019-06-20T09:43:32.621Z,963.58
2019-06-20T09:44:32.616Z,963.58
2019-06-20T09:45:32.540Z,963.58
2019-06-20T09:46:32.502Z,963.55
2019-06-20T09:47:32.455Z,963.53
2019-06-20T09:48:32.417Z,963.59
2019-06-20T09:49:32.401Z,963.57
2019-06-20T09:50:32.334Z,963.61
2019-06-20T09:51:32.289Z,963.59
2019-06-20T09:52:32.253Z,963.57
2019-06-20T09:53:32.240Z,963.57
2019-06-20T09:54:32.163Z,963.57
2019-06-20T09:55:32.126Z,963.62
2019-06-20T09:56:32.082Z,963.60
2019-06-20T09:57:32.042Z,963.62
2019-06-20T09:58:32.042Z,963.62
2019-06-20T09:59:31.957Z,963.68
2019-06-20T10:00:31.924Z,963.65
2019-06-20T10:01:31.887Z,963.63
2019-06-20T10:02:31.840Z,963.64
2019-06-20T10:03:31.828Z,963.62
2019-06-20T10:04:31.755Z,963.57
2019-06-20T10:05:31.754Z,963.63
2019-06-20T10:06:31.669Z,963.64
2019-06-20T10:07:31.668Z,963.61
2019-06-20T10:08:31.593Z,963.67
2019-06-20T10:09:31.548Z,963.61
2019-06-20T10:10:31.507Z,963.61
2019-06-20T10:11:31.470Z,963.61
2019-06-20T10:12:31.465Z,963.55
2019-06-20T10:13:32.825Z,963.63
2019-06-20T10:14:31.344Z,963.74
2019-06-20T10:15:31.306Z,963.69
2019-06-20T10:16:45.037Z,963.67
2019-06-20T10:17:31.260Z,963.64
2019-06-20T10:18:31.212Z,963.62
2019-06-20T10:19:31.139Z,963.59
2019-06-20T10:20:31.132Z,963.58
2019-06-20T10:21:31.061Z,963.57
2019-06-20T10:22:31.020Z,963.58
2019-06-20T10:23:31.008Z,963.61
2019-06-20T10:24:30.937Z,963.65
2019-06-20T10:25:30.895Z,963.74
2019-06-20T10:26:30.850Z,963.68
2019-06-20T10:27:30.809Z,963.77
2019-06-20T10:28:30.802Z,963.78
2019-06-20T10:29:30.729Z,963.67
2019-06-20T10:30:30.728Z,963.67
2019-06-20T10:31:30.646Z,963.74
2019-06-20T10:32:30.607Z,963.72
2019-06-20T10:33:30.562Z,963.72
2019-06-20T10:34:31.243Z,963.80
2019-06-20T10:35:30.512Z,963.74
2019-06-20T10:36:30.440Z,963.83
2019-06-20T10:37:30.399Z,963.77
2019-06-20T10:38:30.392Z,963.75
2019-06-20T10:39:30.316Z,963.62
2019-06-20T10:40:30.296Z,963.70
2019-06-20T10:41:30.233Z,963.82
2019-06-20T10:42:30.195Z,963.76
2019-06-20T10:43:30.191Z,963.78
2019-06-20T10:44:30.139Z,963.86
2019-06-20T10:45:30.073Z,963.80
2019-06-20T10:46:30.031Z,963.75
2019-06-20T10:47:34.965Z,963.74
2019-06-20T10:48:29.980Z,963.75
2019-06-20T10:49:30.740Z,963.75
2019-06-20T10:50:29.873Z,963.80
2019-06-20T10:51:29.836Z,963.85
2019-06-20T10:52:29.787Z,963.80
2019-06-20T10:53:29.787Z,963.85
2019-06-20T10:54:29.750Z,963.89
2019-06-20T10:55:29.670Z,963.94
2019-06-20T10:56:29.632Z,963.82
2019-06-20T10:57:29.588Z,963.84
2019-06-20T10:58:29.596Z,963.79
2019-06-20T10:59:29.518Z,963.84
2019-06-20T11:00:31.825Z,963.79
2019-06-20T11:01:29.436Z,963.82
2019-06-20T11:02:29.390Z,963.88
2019-06-20T11:03:29.417Z,963.98
2019-06-20T11:04:29.313Z,963.91
2019-06-20T11:05:29.309Z,963.97
2019-06-20T11:06:29.233Z,963.93
2019-06-20T11:07:29.195Z,963.93
2019-06-20T11:08:29.153Z,963.86
2019-06-20T11:09:29.120Z,963.84
2019-06-20T11:10:29.116Z,963.81
2019-06-20T11:11:29.052Z,963.84
2019-06-20T11:12:42.612Z,963.82
2019-06-20T11:13:29.006Z,963.81
2019-06-20T11:14:28.917Z,963.79
2019-06-20T11:15:28.881Z,963.80
2019-06-20T11:16:28.846Z,963.87
2019-06-20T11:17:28.801Z,963.84
2019-06-20T11:18:28.819Z,963.80
2019-06-20T11:19:28.758Z,963.72
2019-06-20T11:20:28.683Z,963.75
2019-06-20T11:21:28.648Z,963.76
2019-06-20T11:22:28.605Z,963.80
2019-06-20T11:23:28.591Z,963.80
2019-06-20T11:24:29.195Z,963.76
2019-06-20T11:25:28.487Z,963.73
2019-06-20T11:26:28.453Z,963.67
2019-06-20T11:27:28.446Z,963.73
2019-06-20T11:28:28.366Z,963.85
2019-06-20T11:29:28.418Z,963.86
2019-06-20T11:30:28.327Z,963.89
2019-06-20T11:31:28.249Z,963.82
2019-06-20T11:32:28.215Z,963.86
2019-06-20T11:33:28.172Z,963.82
2019-06-20T11:34:28.146Z,963.84
2019-06-20T11:35:28.174Z,963.83
2019-06-20T11:36:28.056Z,963.81
2019-06-20T11:37:28.017Z,963.80
2019-06-20T11:38:27.979Z,963.86
2019-06-20T11:39:27.944Z,963.84
2019-06-20T11:40:27.943Z,963.76
2019-06-20T11:41:27.863Z,963.89
2019-06-20T11:42:27.850Z,963.82
2019-06-20T11:43:27.837Z,963.81
2019-06-20T11:44:27.792Z,963.81
2019-06-20T11:45:27.714Z,963.79
2019-06-20T11:46:27.675Z,963.82
2019-06-20T11:47:27.670Z,963.85
2019-06-20T11:48:27.594Z,963.94
2019-06-20T11:49:27.594Z,963.82
2019-06-20T11:50:27.515Z,963.81
2019-06-20T11:51:27.512Z,963.77
2019-06-20T11:52:27.448Z,963.77
2019-06-20T11:53:27.400Z,963.79
2019-06-20T11:54:27.372Z,963.88
2019-06-20T11:55:27.329Z,963.76
2019-06-20T11:56:27.319Z,963.62
2019-06-20T11:57:27.245Z,963.85
2019-06-20T11:58:27.212Z,963.67
2019-06-20T11:59:27.210Z,963.67
2019-06-20T12:00:27.134Z,963.71
2019-06-20T12:01:32.977Z,963.71
2019-06-20T12:02:27.057Z,963.69
2019-06-20T12:03:27.013Z,963.66
2019-06-20T12:04:27.013Z,963.67
2019-06-20T12:05:26.970Z,963.72
2019-06-20T12:06:26.896Z,963.72
2019-06-20T12:07:26.857Z,963.86
2019-06-20T12:08:26.835Z,963.77
2019-06-20T12:09:26.815Z,963.80
2019-06-20T12:10:26.745Z,963.86
2019-06-20T12:11:26.703Z,963.77
2019-06-20T12:12:26.665Z,963.80
2019-06-20T12:13:26.634Z,963.84
2019-06-20T12:14:26.618Z,963.80
2019-06-20T12:15:26.579Z,963.80
2019-06-20T12:16:26.518Z,963.84
2019-06-20T12:17:26.465Z,963.86
2019-06-20T12:18:26.425Z,963.83
2019-06-20T12:19:26.396Z,963.87
2019-06-20T12:20:26.380Z,963.83
2019-06-20T12:21:26.307Z,963.85
2019-06-20T12:22:26.268Z,963.81
2019-06-20T12:23:26.233Z,963.72
2019-06-20T12:24:26.201Z,963.74
2019-06-20T12:25:26.184Z,963.68
2019-06-20T12:26:26.183Z,963.65
2019-06-20T12:27:26.071Z,963.61
2019-06-20T12:28:26.027Z,963.59